Last 48 Hours

Canyon Lodge - 8,343ft

15 Minute Data | America/Los_Angeles
as of 7/14/24 4:47 PM PDT
Date & Time Temp (°F) Heat Index (°F) WindChill (°F) RH (%) Dew Pt (°F) Wet Bulb (°F) Wind Dir (°) Wind Spd (mph) Wind Gust (mph) Wind Gst Dir (°) Daily Min Temp (°F) Daily Max Temp (°F) Daily Max Wind (mph)
7/14/24 - 1645 12.1 - - 63 1.9 10.2 SSW | 208 1.7 7.1 S | 189 8.4 109.6 18.8
7/14/24 - 1630 15.4 - - 63 5.0 13.2 SW | 221 2.5 13.1 S | 181 8.4 109.6 18.8
7/14/24 - 1615 15.7 - - 63 5.2 13.4 NW | 319 2.3 8.4 NW | 311 8.4 109.6 18.8
7/14/24 - 1600 17.4 - - 62 6.6 15.0 WSW | 243 2.5 12.2 NNW | 329 8.4 109.6 18.8
7/14/24 - 1545 17.6 - - 62 6.7 15.1 WNW | 282 1.6 12.5 NNW | 327 8.4 109.6 18.8
7/14/24 - 1530 12.4 - 7.2 62 2.0 10.5 W | 278 3.0 12.0 NW | 319 8.4 109.6 18.8
7/14/24 - 1515 16.7 - 11.6 62 6.0 14.3 NNW | 328 3.3 14.1 N | 0 10.8 109.6 18.8
7/14/24 - 1500 15.7 - 10.2 62 5.0 13.4 NW | 316 3.4 15.8 WNW | 302 13.0 109.6 18.8
7/14/24 - 1445 16.2 - - 62 5.5 13.9 NNW | 343 3.0 12.6 NW | 321 13.4 109.6 18.8
7/14/24 - 1430 20.4 - - 61 9.2 17.6 WNW | 287 2.8 15.0 W | 276 17.0 109.6 18.8
7/14/24 - 1415 20.6 - 15.2 62 9.6 17.9 NW | 323 3.8 14.4 NW | 322 17.8 109.6 18.8
7/14/24 - 1400 21.1 - - 61 9.9 18.3 NNW | 328 3.0 9.1 NNW | 338 17.8 109.6 18.8
7/14/24 - 1345 21.4 - 16.1 61 10.1 18.6 NNW | 339 3.8 12.4 NNW | 336 19.2 109.6 18.8
7/14/24 - 1330 24.3 - 19.2 61 12.8 21.1 S | 175 4.0 18.1 SSE | 149 19.2 109.6 18.8
7/14/24 - 1315 26.2 - - 61 14.4 22.8 E | 79 1.7 11.6 ESE | 113 19.2 109.6 18.8
7/14/24 - 1300 27.6 - 23.9 60 15.6 24.0 SSW | 206 3.3 12.3 SSW | 195 19.2 109.6 18.8
7/14/24 - 1245 29.0 - - 60 16.7 25.2 SSW | 193 2.1 8.4 S | 184 19.2 109.6 18.8
7/14/24 - 1230 28.2 - - 59 15.8 24.4 E | 90 1.5 7.0 SSE | 164 19.2 109.6 18.8
7/14/24 - 1215 24.4 - - 59 12.3 21.1 E | 99 1.7 8.1 E | 93 19.2 109.6 18.8
7/14/24 - 1200 26.4 - - 60 14.2 22.8 SE | 146 1.7 12.2 NW | 304 19.2 109.6 18.8
7/14/24 - 1145 34.5 - - 59 21.7 30.1 SE | 124 1.9 11.0 SW | 228 23.1 109.6 18.8
7/14/24 - 1130 37.3 - 34.6 58 24.1 32.4 S | 186 3.6 12.1 SSW | 193 31.9 109.6 18.8
7/14/24 - 1115 40.0 - - 58 26.3 34.8 S | 179 1.3 7.2 SE | 136 32.6 109.6 18.8
7/14/24 - 1100 76.8 - - 55 59.4 65.6 SE | 146 0.3 2.5 S | 183 42.6 109.6 18.8
7/14/24 - 1045 84.7 86.8 - 53 65.7 71.4 W | 279 1.1 5.5 SSW | 203 42.6 109.6 18.8
7/14/24 - 1030 99.6 119.2 - 52 78.9 82.8 SSW | 199 1.5 5.5 SW | 232 42.6 109.6 18.8
7/14/24 - 1015 90.7 97.0 - 52 70.8 75.8 WSW | 244 2.0 6.0 SW | 229 42.6 104.0 18.8
7/14/24 - 1000 67.1 - - 54 50.0 57.3 SW | 234 4.8 16.8 W | 266 42.6 88.8 18.8
7/14/24 - 0945 46.3 - 44.3 56 31.6 40.1 WSW | 237 4.4 14.7 WSW | 239 42.6 88.8 18.8
7/14/24 - 0930 53.2 - - 56 38.0 46.0 WSW | 242 3.9 18.8 NNW | 342 47.7 88.8 18.8
7/14/24 - 0915 58.0 - - 56 42.4 50.1 SW | 220 4.2 17.7 SW | 214 48.8 88.8 18.1
7/14/24 - 0900 62.0 - - 56 46.0 53.5 SSW | 196 3.9 18.1 WSW | 248 48.8 88.8 18.1
7/14/24 - 0845 58.3 - - 56 42.7 50.4 SW | 232 3.4 15.0 SW | 232 48.8 88.8 15.2
7/14/24 - 0830 55.6 - - 56 40.4 48.2 S | 184 3.6 15.0 S | 189 48.8 88.8 15.2
7/14/24 - 0815 52.0 - - 56 37.0 45.1 SSW | 203 3.2 9.9 SSW | 199 48.8 88.8 15.2
7/14/24 - 0800 51.5 - - 56 36.6 44.6 S | 183 4.0 12.6 S | 190 48.8 88.8 15.2
7/14/24 - 0745 53.0 - - 57 38.0 45.9 S | 185 5.4 15.2 S | 183 48.8 88.8 15.2
7/14/24 - 0730 52.0 - - 57 37.1 45.1 S | 182 3.8 13.3 SE | 137 48.8 88.8 13.3
7/14/24 - 0715 50.6 - - 57 35.8 43.9 S | 185 3.7 9.7 S | 191 48.8 88.8 9.7
7/14/24 - 0700 50.0 - - 57 35.2 43.4 S | 190 2.7 8.4 S | 191 49.2 88.8 8.6
7/14/24 - 0645 50.9 - - 56 35.9 44.0 SSW | 194 2.3 7.8 SSW | 194 49.8 88.8 8.6
7/14/24 - 0630 52.7 - - 56 37.4 45.5 SSW | 211 0.9 8.6 S | 179 51.3 88.8 8.6
7/14/24 - 0615 62.1 - - 55 45.5 53.2 SSW | 199 0.9 5.1 SSW | 210 56.7 88.8 5.1
7/14/24 - 0600 69.7 - - 54 52.1 59.4 SSW | 207 0.5 3.1 S | 189 66.0 88.8 3.6
7/14/24 - 0545 81.2 82.2 - 52 62.1 68.3 SSW | 197 0.2 2.3 S | 171 66.0 88.8 3.6
7/14/24 - 0530 87.0 89.8 - 51 66.9 72.6 SSE | 157 0.0 0.5 SSE | 162 66.0 88.8 3.6
7/14/24 - 0515 84.9 86.5 - 51 64.7 70.7 N | 0 0.0 0.0 SSE | 159 66.0 88.3 3.6
7/14/24 - 0500 82.2 83.1 - 51 62.2 68.6 N | 0 0.0 0.0 SE | 127 66.0 85.5 3.6
7/14/24 - 0445 75.5 - - 52 56.4 63.4 S | 187 0.0 1.6 SSW | 200 66.0 80.4 3.6
7/14/24 - 0430 73.5 - - 52 54.6 61.9 SSW | 204 0.1 1.8 SW | 214 66.0 80.4 3.6
7/14/24 - 0415 72.0 - - 52 53.4 60.7 SW | 228 0.2 1.9 WSW | 245 66.0 80.4 3.6
7/14/24 - 0400 75.0 - - 51 55.9 63.0 SW | 230 0.3 2.6 WSW | 245 66.0 80.4 3.6
7/14/24 - 0345 76.7 - - 51 57.4 64.3 SSW | 212 0.3 2.2 SSW | 204 66.0 80.4 3.6
7/14/24 - 0330 78.6 - - 51 59.1 65.8 SSW | 193 0.0 1.4 SSW | 203 66.0 80.4 3.6
7/14/24 - 0315 75.0 - - 52 56.0 63.0 SSW | 209 0.0 0.4 SSW | 206 66.0 77.6 3.6
7/14/24 - 0300 71.0 - - 52 52.6 60.0 SSW | 207 0.2 1.9 SSW | 198 66.0 76.8 3.6
7/14/24 - 0245 70.9 - - 52 52.6 60.0 SSW | 205 0.3 2.3 S | 182 66.0 76.8 3.6
7/14/24 - 0230 67.5 - - 53 49.8 57.3 SSW | 210 0.8 3.1 SW | 220 66.0 76.8 3.6
7/14/24 - 0215 71.4 - - 53 53.5 60.6 SW | 231 0.4 3.6 SW | 218 66.8 76.8 3.6
7/14/24 - 0200 72.6 - - 53 54.7 61.7 SW | 221 0.2 3.3 WSW | 238 66.8 75.9 3.3
7/14/24 - 0145 71.8 - - 53 54.0 61.0 WSW | 247 0.4 2.2 WSW | 252 66.8 75.9 2.3
7/14/24 - 0130 72.4 - - 54 54.7 61.6 WSW | 244 0.1 1.8 WSW | 252 66.8 75.9 2.3
7/14/24 - 0115 68.6 - - 54 51.4 58.6 SW | 217 0.4 2.3 SSW | 203 66.8 70.2 2.3
7/14/24 - 0100 69.9 - - 54 52.5 59.6 SSW | 208 1.3 4.2 SSW | 199 -2.4 99.0 23.4
7/14/24 - 0045 74.6 - - 54 56.7 63.4 SSW | 211 0.7 3.4 S | 183 -2.4 99.0 23.4
7/14/24 - 0030 77.9 - - 54 59.8 66.1 SW | 214 0.6 2.7 SW | 225 -2.4 99.0 23.4
7/14/24 - 0015 83.0 84.5 - 53 64.4 70.2 SW | 216 0.8 3.4 SW | 219 -2.4 99.0 23.4
7/14/24 - 0000 86.6 89.8 - 53 67.6 73.1 SW | 222 0.4 2.9 SSE | 167 -2.4 99.0 23.4
7/13/24 - 2345 90.4 96.9 - 53 71.0 76.0 SW | 221 0.8 3.7 S | 191 -2.4 99.0 23.4
7/13/24 - 2330 95.2 107.8 - 53 75.3 79.8 W | 259 0.5 3.6 SSW | 207 -2.4 99.0 23.4
7/13/24 - 2315 96.1 110.1 - 53 76.1 80.5 SSW | 203 0.2 1.5 SW | 218 -2.4 99.0 23.4
7/13/24 - 2300 94.2 105.4 - 53 74.4 79.0 SW | 230 0.1 2.3 WSW | 238 -2.4 96.0 23.4
7/13/24 - 2245 94.2 105.4 - 53 74.5 79.1 W | 259 0.0 1.5 WSW | 257 -2.4 96.0 23.4
7/13/24 - 2230 90.8 97.9 - 53 71.6 76.6 NNE | 32 0.1 2.0 NNE | 25 -2.4 95.8 23.4
7/13/24 - 2215 88.7 93.9 - 54 69.9 75.1 SSW | 194 0.1 1.0 SSW | 199 -2.4 95.8 23.4
7/13/24 - 2200 82.3 83.8 - 54 64.2 70.0 N | 351 0.4 1.8 N | 349 -2.4 85.0 23.4
7/13/24 - 2145 78.5 - - 55 60.9 67.1 SE | 133 0.7 3.8 NNE | 19 -2.4 84.3 23.4
7/13/24 - 2130 77.6 - - 55 60.2 66.4 W | 260 1.8 7.8 S | 188 -2.4 80.9 23.4
7/13/24 - 2115 73.8 - - 56 57.0 63.4 NNW | 341 2.4 5.4 NW | 314 -2.4 77.2 23.4
7/13/24 - 2100 64.8 - - 56 48.9 56.0 S | 179 1.4 5.2 S | 189 -2.4 70.7 23.4
7/13/24 - 2045 50.5 - - 57 36.0 43.9 SSE | 149 0.7 6.1 ESE | 116 -2.4 60.2 23.4
7/13/24 - 2030 41.3 - - 57 27.4 35.9 S | 191 0.9 4.4 SSW | 192 -2.4 58.4 23.4
7/13/24 - 2015 36.9 - - 58 23.5 32.1 WSW | 249 0.9 6.6 ESE | 104 -2.4 58.4 23.4
7/13/24 - 2000 23.7 - - 59 11.5 20.4 S | 187 1.5 7.7 S | 191 -2.4 58.4 23.4
7/13/24 - 1945 29.3 - - 58 16.5 25.4 S | 175 0.5 2.9 ESE | 120 -2.4 58.4 23.4
7/13/24 - 1930 31.0 - - 58 18.0 26.8 SE | 126 2.0 9.4 ESE | 102 -2.4 58.4 23.4
7/13/24 - 1915 28.0 - 23.7 59 15.4 24.2 SE | 139 3.8 8.6 SSE | 167 -2.4 58.4 23.4
7/13/24 - 1900 23.1 - 17.9 59 11.0 19.9 S | 177 3.9 10.8 SSE | 158 -2.4 58.4 23.4
7/13/24 - 1845 27.1 - - 59 14.5 23.4 SW | 215 1.8 8.6 SW | 228 -2.4 58.4 23.4
7/13/24 - 1830 38.9 - - 57 25.0 33.7 W | 262 1.0 10.8 SSW | 208 -2.4 58.4 23.4
7/13/24 - 1815 38.0 - - 57 24.1 32.9 W | 259 2.3 8.6 SW | 226 -2.4 58.4 23.4
7/13/24 - 1800 42.5 - 39.8 56 28.1 36.7 SW | 231 4.4 13.6 WSW | 248 -2.4 58.4 23.4
7/13/24 - 1745 42.9 - 38.1 56 28.4 37.1 SSW | 212 7.9 23.4 SW | 215 -2.4 58.4 23.4
7/13/24 - 1730 51.8 - - 56 36.4 44.7 SSW | 210 5.3 15.9 S | 183 -2.4 58.4 19.6
7/13/24 - 1715 52.8 - - 55 37.3 45.5 SSW | 208 5.1 17.4 SSW | 194 -2.4 58.4 19.6
7/13/24 - 1700 47.7 - 45.1 56 32.6 41.1 SW | 235 5.7 19.3 WSW | 240 -2.4 53.0 19.6
7/13/24 - 1645 40.0 - 35.4 58 26.2 34.7 WSW | 237 6.5 19.6 WSW | 255 -2.4 46.3 19.6
7/13/24 - 1630 23.2 - 19.1 61 11.8 20.1 SW | 219 3.2 10.7 SW | 219 -2.4 35.5 16.4
7/13/24 - 1615 10.2 - 2.9 63 -0.0 8.5 SSW | 204 4.0 13.9 SSW | 197 -2.4 27.2 16.4
7/13/24 - 1600 4.0 - - 63 -5.6 2.9 S | 190 2.6 13.0 SE | 143 -2.4 27.2 16.4
7/13/24 - 1545 2.3 - - 64 -7.0 1.3 WNW | 286 2.2 8.5 SSE | 152 -2.4 27.2 16.4
7/13/24 - 1530 2.2 - - 65 -7.0 1.3 SSW | 208 1.7 9.3 SSW | 205 -2.4 27.2 16.4
7/13/24 - 1515 3.4 - - 64 -6.0 2.3 SW | 235 2.7 10.5 NW | 311 -2.4 27.2 16.4
7/13/24 - 1500 4.7 - -4.9 64 -4.9 3.5 NNW | 340 4.9 15.9 NNW | 343 -2.4 27.2 16.4
7/13/24 - 1445 2.2 - - 63 -7.4 1.2 NNW | 348 0.9 3.3 NNW | 331 -2.4 27.2 16.4
7/13/24 - 1430 1.6 - - 63 -8.0 0.7 NNW | 348 1.7 4.5 NW | 325 -2.4 27.2 16.4
7/13/24 - 1415 0.3 - - 64 -9.1 -0.5 NNW | 329 0.6 3.5 N | 0 -2.4 27.2 16.4
7/13/24 - 1400 2.5 - - 63 -7.2 1.5 NNE | 17 0.3 3.8 NNE | 14 -2.4 27.2 16.4
7/13/24 - 1345 7.3 - - 63 -2.8 5.8 NNE | 14 1.5 5.5 NNE | 16 -2.4 27.2 16.4
7/13/24 - 1330 5.6 - - 63 -4.2 4.3 NNE | 27 2.0 10.9 N | 7 -2.4 27.2 16.4
7/13/24 - 1315 3.0 - - 64 -6.5 1.9 NE | 34 2.5 11.1 NNE | 19 -2.4 27.2 16.4
7/13/24 - 1300 0.4 - -6.7 65 -8.8 -0.4 NNE | 32 3.1 13.8 N | 10 -2.4 27.2 16.4
7/13/24 - 1245 -0.7 - - 64 -9.9 -1.4 ESE | 103 2.6 14.7 E | 99 -2.4 27.2 16.4
7/13/24 - 1230 3.3 - - 63 -6.4 2.2 ESE | 123 2.0 9.5 SE | 134 -2.4 27.2 16.4
7/13/24 - 1215 1.7 - - 63 -7.9 0.8 SW | 224 2.0 12.5 SSW | 200 -2.4 27.2 16.4
7/13/24 - 1200 -1.3 - - 63 -10.7 -1.9 ESE | 115 2.0 8.8 ENE | 76 -2.4 27.2 16.4
7/13/24 - 1145 -1.0 - - 64 -10.2 -1.6 NNE | 13 2.6 11.7 ENE | 78 -2.0 27.2 16.4
7/13/24 - 1130 1.0 - - 64 -8.5 0.1 N | 350 2.2 8.5 N | 0 -1.2 27.2 16.4
7/13/24 - 1115 1.5 - - 63 -8.2 0.6 NNE | 16 2.0 7.5 N | 4 -0.3 27.2 16.4
7/13/24 - 1100 3.4 - - 63 -6.4 2.3 N | 349 2.5 9.7 NNW | 336 1.3 27.2 16.4
7/13/24 - 1045 6.8 - - 62 -3.4 5.4 SW | 232 2.4 10.0 SW | 225 2.0 27.2 16.4
7/13/24 - 1030 8.6 - - 61 -2.0 7.0 W | 260 2.8 9.2 SSW | 211 2.0 27.2 16.4
7/13/24 - 1015 7.6 - - 61 -2.8 6.1 S | 190 2.9 8.3 S | 190 2.0 27.2 16.4
7/13/24 - 1000 9.3 - 0.9 61 -1.4 7.6 SSW | 209 4.6 14.6 S | 182 2.0 27.2 16.4
7/13/24 - 0945 6.9 - -0.5 61 -3.6 5.4 SSW | 198 3.7 11.0 S | 176 2.0 27.2 16.4
7/13/24 - 0930 5.7 - -0.8 62 -4.7 4.3 SW | 216 3.2 9.6 SSE | 166 2.0 27.2 16.4
7/13/24 - 0915 5.2 - - 62 -5.1 3.9 WSW | 242 2.3 9.9 WSW | 239 2.0 27.2 16.4
7/13/24 - 0900 6.8 - - 61 -3.8 5.3 SW | 218 2.4 10.0 SSE | 156 2.0 27.2 16.4
7/13/24 - 0845 6.8 - -2.6 61 -3.8 5.3 SW | 217 5.1 15.3 W | 262 2.0 27.2 16.4
7/13/24 - 0830 4.6 - -5.2 61 -5.8 3.3 SW | 227 5.1 16.4 W | 279 2.0 27.2 16.4
7/13/24 - 0815 3.2 - -4.6 61 -7.1 2.0 SSW | 202 3.6 14.7 S | 173 2.0 27.2 14.7
7/13/24 - 0800 3.2 - - 61 -7.1 2.1 SW | 221 2.6 10.0 SW | 228 2.0 27.2 10.0
7/13/24 - 0745 22.8 - - 59 10.6 19.6 WSW | 240 0.1 2.1 SSW | 212 6.2 27.2 6.0
7/13/24 - 0730 24.1 - - 58 11.4 20.7 S | 191 0.2 4.3 S | 178 6.2 27.2 6.0
7/13/24 - 0715 21.8 - - 58 9.2 18.6 SW | 232 0.9 4.3 SSW | 193 6.2 23.2 6.0
7/13/24 - 0700 20.5 - - 57 7.9 17.4 SW | 227 0.5 4.5 S | 189 6.2 23.1 6.0
7/13/24 - 0645 17.0 - - 58 4.7 14.3 SW | 231 0.8 2.8 WSW | 240 6.2 21.0 6.0
7/13/24 - 0630 18.3 - - 57 5.8 15.5 SW | 236 0.6 2.8 WSW | 243 6.2 21.0 6.0
7/13/24 - 0615 19.7 - - 57 6.9 16.7 SSW | 201 0.1 2.7 S | 187 6.2 21.0 6.0
7/13/24 - 0600 19.2 - - 57 6.4 16.2 N | 0 0.0 0.0 NW | 319 6.2 21.0 6.0
7/13/24 - 0545 19.2 - - 57 6.3 16.2 SSW | 203 0.2 2.0 S | 183 6.2 21.0 6.0
7/13/24 - 0530 18.8 - - 56 5.9 15.9 SSW | 209 0.2 2.9 SSW | 206 6.2 21.0 6.0
7/13/24 - 0515 19.7 - - 56 6.6 16.6 S | 187 0.2 3.0 S | 184 6.2 21.0 6.0
7/13/24 - 0500 18.3 - - 56 5.4 15.4 WNW | 303 0.3 3.3 WNW | 300 6.2 21.0 6.0
7/13/24 - 0445 12.8 - - 58 0.7 10.6 SW | 235 1.0 3.9 WSW | 242 6.2 18.1 6.0
7/13/24 - 0430 13.8 - - 57 1.4 11.4 SW | 224 1.4 4.5 SSW | 197 6.2 18.1 6.0
7/13/24 - 0415 14.8 - - 57 2.3 12.3 WSW | 245 1.7 5.0 WSW | 246 6.2 18.1 6.0
7/13/24 - 0400 13.2 - - 57 1.0 10.9 SW | 232 1.5 5.9 WSW | 245 6.2 18.1 6.0
7/13/24 - 0345 16.0 - - 57 3.3 13.3 WSW | 243 1.8 6.0 WSW | 248 6.2 18.1 6.0
7/13/24 - 0330 17.1 - - 57 4.3 14.3 SW | 234 1.6 4.1 SSW | 212 6.2 18.1 5.6
7/13/24 - 0315 15.3 - - 57 2.9 12.7 WSW | 238 1.9 5.1 WSW | 244 6.2 18.1 5.6
7/13/24 - 0300 16.4 - - 57 3.8 13.7 SW | 222 1.2 4.2 SSW | 196 6.2 18.1 5.6
7/13/24 - 0245 12.3 - - 58 0.3 10.1 WSW | 240 1.6 5.6 N | 7 6.2 17.9 5.6
7/13/24 - 0230 11.0 - - 58 -0.8 9.0 SW | 235 0.9 3.6 SSW | 208 6.2 16.1 5.6
7/13/24 - 0215 12.4 - - 58 0.4 10.2 WSW | 239 0.8 3.8 WSW | 249 6.2 16.1 5.6
7/13/24 - 0200 13.1 - - 58 1.1 10.8 WNW | 293 0.2 2.6 NW | 318 6.2 16.1 5.6
7/13/24 - 0145 11.8 - - 59 0.1 9.6 W | 259 1.7 5.6 NW | 311 6.2 14.0 5.6
7/13/24 - 0130 9.2 - - 60 -2.1 7.4 WSW | 250 2.2 5.6 WSW | 244 6.2 10.4 5.6
7/13/24 - 0115 8.3 - - 60 -2.8 6.6 WSW | 257 0.8 3.5 WSW | 247 6.2 10.4 3.5
7/13/24 - 0100 6.0 - - 61 -4.8 4.5 WSW | 251 1.9 5.4 W | 259 -16.1 36.1 23.2
7/13/24 - 0045 7.4 - - 60 -3.6 5.8 WSW | 241 1.3 4.4 WSW | 257 -16.1 36.1 23.2
7/13/24 - 0030 6.6 - - 60 -4.3 5.1 WSW | 254 2.4 5.7 WSW | 252 -16.1 36.1 23.2
7/13/24 - 0015 9.5 - - 59 -1.8 7.7 WSW | 253 1.7 4.4 WSW | 252 -16.1 36.1 23.2
7/13/24 - 0000 10.0 - - 60 -1.3 8.1 WSW | 252 1.1 3.2 W | 261 -16.1 36.1 23.2
7/12/24 - 2345 9.2 - - 60 -1.8 7.4 SW | 234 1.2 4.6 SSW | 193 -16.1 36.1 23.2
7/12/24 - 2330 14.6 - - 60 3.1 12.2 W | 271 1.0 4.8 WNW | 294 -16.1 36.1 23.2
7/12/24 - 2315 19.6 - - 60 7.9 16.8 SW | 236 0.6 4.3 WSW | 256 -16.1 36.1 23.2
7/12/24 - 2300 22.7 - - 60 10.8 19.6 WSW | 248 2.0 5.4 SSW | 198 -16.1 36.1 23.2
7/12/24 - 2245 32.5 - - 60 20.0 28.3 SW | 219 2.1 5.7 SSW | 197 -16.1 36.1 23.2
7/12/24 - 2230 31.8 - - 59 19.2 27.6 SW | 226 0.8 4.4 WSW | 238 -16.1 36.1 23.2
7/12/24 - 2215 24.6 - - 59 12.3 21.2 WSW | 254 0.1 1.6 W | 262 -16.1 32.0 23.2
7/12/24 - 2200 26.5 - - 59 14.1 22.9 WSW | 237 0.1 1.8 W | 274 -16.1 32.0 23.2
7/12/24 - 2145 24.5 - - 59 12.4 21.2 SSW | 192 0.0 0.6 SSW | 198 -16.1 32.0 23.2
7/12/24 - 2130 28.1 - - 60 15.8 24.4 S | 180 0.5 3.6 ENE | 66 -16.1 32.0 23.2
7/12/24 - 2115 26.5 - - 60 14.7 23.1 SE | 140 1.0 5.3 SE | 141 -16.1 30.7 23.2
7/12/24 - 2100 28.0 - - 61 16.2 24.4 SSE | 168 2.8 11.8 S | 183 -16.1 30.1 23.2
7/12/24 - 2045 18.2 - 11.8 61 7.1 15.6 SSW | 192 4.2 14.9 SSW | 193 -16.1 27.9 23.2
7/12/24 - 2030 5.6 - - 61 -4.8 4.2 SSW | 207 1.8 8.0 SSW | 199 -16.1 27.9 23.2
7/12/24 - 2015 -0.4 - - 62 -10.2 -1.2 SSW | 206 1.4 6.5 WSW | 242 -16.1 27.9 23.2
7/12/24 - 2000 -2.8 - - 63 -12.4 -3.4 SW | 214 2.4 8.9 SW | 214 -16.1 27.9 23.2
7/12/24 - 1945 -4.7 - - 63 -14.0 -5.1 SSW | 203 2.2 8.2 SW | 228 -16.1 27.9 23.2
7/12/24 - 1930 -6.9 - -14.6 64 -15.9 -7.0 SSW | 212 3.0 10.6 S | 187 -16.1 27.9 23.2
7/12/24 - 1915 -7.3 - - 64 -16.2 -7.4 SW | 236 1.8 6.2 SW | 235 -16.1 27.9 23.2
7/12/24 - 1900 -2.6 - - 64 -11.9 -3.1 WSW | 239 1.9 10.8 SW | 227 -16.1 27.9 23.2
7/12/24 - 1845 -2.3 - - 64 -11.6 -2.8 SW | 236 2.0 5.4 WSW | 244 -16.1 27.9 23.2
7/12/24 - 1830 -1.8 - - 64 -11.1 -2.4 WSW | 238 1.8 8.6 WSW | 238 -16.1 27.9 23.2
7/12/24 - 1815 -1.2 - - 64 -10.5 -1.9 SW | 218 2.0 8.8 SSW | 194 -16.1 27.9 23.2
7/12/24 - 1800 -2.8 - - 64 -11.9 -3.3 SW | 220 2.5 9.7 W | 266 -16.1 27.9 23.2
7/12/24 - 1745 -5.6 - - 65 -14.4 -5.8 SW | 219 2.1 7.1 WSW | 246 -16.1 27.9 23.2
7/12/24 - 1730 -4.4 - - 65 -13.3 -4.7 WNW | 303 0.2 1.8 WNW | 302 -16.1 27.9 23.2
7/12/24 - 1715 -2.9 - - 64 -11.9 -3.3 NW | 319 1.1 5.8 WNW | 303 -16.1 27.9 23.2
7/12/24 - 1700 -2.7 - - 65 -11.7 -3.2 W | 276 0.7 5.9 SW | 229 -16.1 27.9 23.2
7/12/24 - 1645 -4.7 - - 65 -13.6 -5.0 S | 188 1.2 6.8 SSW | 208 -16.1 27.9 23.2
Max 99.6 119.2 45.1 65 78.9 82.8 - 7.9 23.4 - 66.8 109.6 23.4
Avg 32.1 95.3 14.0 59 18.9 27.2 - 1.9 7.5 - - - -
Min -7.3 82.2 -14.6 51 -16.2 -7.4 - 0.0 0.0 - -16.1 10.4 2.3